sensor_id;sensor_type;location;lat;lon;timestamp;temperature;humidity
21123;DHT22;10719;48.130;11.630;2022-10-22T00:00:45;13.70;99.90
21123;DHT22;10719;48.130;11.630;2022-10-22T00:03:11;13.80;99.90
21123;DHT22;10719;48.130;11.630;2022-10-22T00:05:36;13.80;99.90
21123;DHT22;10719;48.130;11.630;2022-10-22T00:08:02;13.80;99.90
21123;DHT22;10719;48.130;11.630;2022-10-22T00:10:28;13.80;99.90
21123;DHT22;10719;48.130;11.630;2022-10-22T00:12:53;13.80;99.90
21123;DHT22;10719;48.130;11.630;2022-10-22T00:15:19;13.80;99.90
21123;DHT22;10719;48.130;11.630;2022-10-22T00:17:45;13.80;99.90
21123;DHT22;10719;48.130;11.630;2022-10-22T00:20:11;13.90;99.90
21123;DHT22;10719;48.130;11.630;2022-10-22T00:22:37;13.90;99.90
21123;DHT22;10719;48.130;11.630;2022-10-22T00:25:03;14.00;99.90
21123;DHT22;10719;48.130;11.630;2022-10-22T00:27:28;14.00;99.90
21123;DHT22;10719;48.130;11.630;2022-10-22T00:29:54;14.00;99.90
21123;DHT22;10719;48.130;11.630;2022-10-22T00:32:19;13.90;99.90
21123;DHT22;10719;48.130;11.630;2022-10-22T00:34:45;14.00;99.90
21123;DHT22;10719;48.130;11.630;2022-10-22T00:37:10;14.00;99.90
21123;DHT22;10719;48.130;11.630;2022-10-22T00:39:36;14.00;99.90
21123;DHT22;10719;48.130;11.630;2022-10-22T00:42:02;14.10;99.90
21123;DHT22;10719;48.130;11.630;2022-10-22T00:47:34;14.10;99.90
21123;DHT22;10719;48.130;11.630;2022-10-22T00:50:02;14.10;99.90
21123;DHT22;10719;48.130;11.630;2022-10-22T00:52:28;14.10;99.90
21123;DHT22;10719;48.130;11.630;2022-10-22T00:54:54;14.10;99.90
21123;DHT22;10719;48.130;11.630;2022-10-22T00:57:21;14.00;99.90
21123;DHT22;10719;48.130;11.630;2022-10-22T00:59:47;13.90;99.90
21123;DHT22;10719;48.130;11.630;2022-10-22T01:02:13;13.80;99.90
21123;DHT22;10719;48.130;11.630;2022-10-22T01:04:40;13.70;99.90
21123;DHT22;10719;48.130;11.630;2022-10-22T01:07:06;13.70;99.90
21123;DHT22;10719;48.130;11.630;2022-10-22T01:15:09;13.50;99.90
21123;DHT22;10719;48.130;11.630;2022-10-22T01:17:46;13.50;99.90
21123;DHT22;10719;48.130;11.630;2022-10-22T01:31:24;13.40;99.90
21123;DHT22;10719;48.130;11.630;2022-10-22T01:33:53;13.40;99.90
21123;DHT22;10719;48.130;11.630;2022-10-22T01:36:19;13.40;99.90
21123;DHT22;10719;48.130;11.630;2022-10-22T01:38:46;13.40;99.90
21123;DHT22;10719;48.130;11.630;2022-10-22T01:41:14;13.30;99.90
21123;DHT22;10719;48.130;11.630;2022-10-22T01:43:39;13.30;99.90
21123;DHT22;10719;48.130;11.630;2022-10-22T01:46:05;13.30;99.90
21123;DHT22;10719;48.130;11.630;2022-10-22T02:02:55;13.20;99.90
21123;DHT22;10719;48.130;11.630;2022-10-22T02:05:05;13.20;99.90
21123;DHT22;10719;48.130;11.630;2022-10-22T02:07:36;13.20;99.90
21123;DHT22;10719;48.130;11.630;2022-10-22T02:10:02;13.20;99.90
21123;DHT22;10719;48.130;11.630;2022-10-22T02:12:30;13.20;99.90
21123;DHT22;10719;48.130;11.630;2022-10-22T02:14:57;13.20;99.90
21123;DHT22;10719;48.130;11.630;2022-10-22T02:17:26;13.10;99.90
21123;DHT22;10719;48.130;11.630;2022-10-22T02:20:00;13.20;99.90
21123;DHT22;10719;48.130;11.630;2022-10-22T02:22:28;13.20;99.90
21123;DHT22;10719;48.130;11.630;2022-10-22T02:24:54;13.20;99.90
21123;DHT22;10719;48.130;11.630;2022-10-22T02:27:29;13.10;99.90
21123;DHT22;10719;48.130;11.630;2022-10-22T02:30:05;13.20;99.90
21123;DHT22;10719;48.130;11.630;2022-10-22T02:32:38;13.20;99.90
21123;DHT22;10719;48.130;11.630;2022-10-22T02:35:07;13.20;99.90
21123;DHT22;10719;48.130;11.630;2022-10-22T02:37:34;13.20;99.90
21123;DHT22;10719;48.130;11.630;2022-10-22T02:40:00;13.20;99.90
21123;DHT22;10719;48.130;11.630;2022-10-22T02:42:27;13.10;99.90
21123;DHT22;10719;48.130;11.630;2022-10-22T02:44:54;13.20;99.90
21123;DHT22;10719;48.130;11.630;2022-10-22T02:47:19;13.20;99.90
21123;DHT22;10719;48.130;11.630;2022-10-22T02:49:45;13.20;99.90
21123;DHT22;10719;48.130;11.630;2022-10-22T02:52:11;13.20;99.90
21123;DHT22;10719;48.130;11.630;2022-10-22T02:54:36;13.20;99.90
21123;DHT22;10719;48.130;11.630;2022-10-22T02:57:02;13.20;99.90
21123;DHT22;10719;48.130;11.630;2022-10-22T02:59:27;13.20;99.90
21123;DHT22;10719;48.130;11.630;2022-10-22T03:01:53;13.20;99.90
21123;DHT22;10719;48.130;11.630;2022-10-22T03:04:18;13.20;99.90
21123;DHT22;10719;48.130;11.630;2022-10-22T03:06:44;13.10;99.90
21123;DHT22;10719;48.130;11.630;2022-10-22T03:09:12;13.20;99.90
21123;DHT22;10719;48.130;11.630;2022-10-22T03:11:38;13.10;99.90
21123;DHT22;10719;48.130;11.630;2022-10-22T03:14:04;13.10;99.90
21123;DHT22;10719;48.130;11.630;2022-10-22T03:16:29;13.10;99.90
21123;DHT22;10719;48.130;11.630;2022-10-22T03:18:55;13.10;99.90
21123;DHT22;10719;48.130;11.630;2022-10-22T03:21:41;13.20;99.90
21123;DHT22;10719;48.130;11.630;2022-10-22T03:24:14;13.10;99.90
21123;DHT22;10719;48.130;11.630;2022-10-22T03:26:40;13.10;99.90
21123;DHT22;10719;48.130;11.630;2022-10-22T03:29:09;13.10;99.90
21123;DHT22;10719;48.130;11.630;2022-10-22T03:31:35;13.10;99.90
21123;DHT22;10719;48.130;11.630;2022-10-22T03:34:01;13.10;99.90
21123;DHT22;10719;48.130;11.630;2022-10-22T03:36:26;13.10;99.90
21123;DHT22;10719;48.130;11.630;2022-10-22T03:38:52;13.10;99.90
21123;DHT22;10719;48.130;11.630;2022-10-22T03:41:18;13.10;99.90
21123;DHT22;10719;48.130;11.630;2022-10-22T03:43:44;13.00;99.90
21123;DHT22;10719;48.130;11.630;2022-10-22T03:46:14;13.00;99.90
21123;DHT22;10719;48.130;11.630;2022-10-22T03:48:40;12.90;99.90
21123;DHT22;10719;48.130;11.630;2022-10-22T03:51:06;12.90;99.90
21123;DHT22;10719;48.130;11.630;2022-10-22T03:53:32;12.80;99.90
21123;DHT22;10719;48.130;11.630;2022-10-22T03:55:57;12.80;99.90
21123;DHT22;10719;48.130;11.630;2022-10-22T03:58:23;12.80;99.90
21123;DHT22;10719;48.130;11.630;2022-10-22T04:00:48;12.70;99.90
21123;DHT22;10719;48.130;11.630;2022-10-22T04:03:14;12.60;99.90
21123;DHT22;10719;48.130;11.630;2022-10-22T04:05:40;12.60;99.90
21123;DHT22;10719;48.130;11.630;2022-10-22T04:08:05;12.60;99.90
21123;DHT22;10719;48.130;11.630;2022-10-22T04:10:31;12.50;99.90
21123;DHT22;10719;48.130;11.630;2022-10-22T04:12:56;12.50;99.90
21123;DHT22;10719;48.130;11.630;2022-10-22T04:15:22;12.40;99.90
21123;DHT22;10719;48.130;11.630;2022-10-22T04:17:51;12.40;99.90
21123;DHT22;10719;48.130;11.630;2022-10-22T04:20:16;12.30;99.90
21123;DHT22;10719;48.130;11.630;2022-10-22T04:22:42;12.30;99.90
21123;DHT22;10719;48.130;11.630;2022-10-22T04:25:08;12.30;99.90
21123;DHT22;10719;48.130;11.630;2022-10-22T04:27:34;12.20;99.90
21123;DHT22;10719;48.130;11.630;2022-10-22T04:30:00;12.20;99.90
21123;DHT22;10719;48.130;11.630;2022-10-22T04:32:26;12.20;99.90
21123;DHT22;10719;48.130;11.630;2022-10-22T04:34:52;12.20;99.90
21123;DHT22;10719;48.130;11.630;2022-10-22T04:37:18;12.20;99.90
21123;DHT22;10719;48.130;11.630;2022-10-22T04:39:43;12.20;99.90
21123;DHT22;10719;48.130;11.630;2022-10-22T04:42:09;12.20;99.90
21123;DHT22;10719;48.130;11.630;2022-10-22T04:44:35;12.20;99.90
21123;DHT22;10719;48.130;11.630;2022-10-22T04:47:01;12.10;99.90
21123;DHT22;10719;48.130;11.630;2022-10-22T04:49:27;12.10;99.90
21123;DHT22;10719;48.130;11.630;2022-10-22T04:51:52;12.10;99.90
21123;DHT22;10719;48.130;11.630;2022-10-22T04:54:18;12.00;99.90
21123;DHT22;10719;48.130;11.630;2022-10-22T04:56:44;12.00;99.90
21123;DHT22;10719;48.130;11.630;2022-10-22T04:59:12;12.00;99.90
21123;DHT22;10719;48.130;11.630;2022-10-22T05:01:43;12.00;99.90
21123;DHT22;10719;48.130;11.630;2022-10-22T05:04:15;12.00;99.90
21123;DHT22;10719;48.130;11.630;2022-10-22T05:06:41;11.90;99.90
21123;DHT22;10719;48.130;11.630;2022-10-22T05:09:12;12.00;99.90
21123;DHT22;10719;48.130;11.630;2022-10-22T05:11:40;12.00;99.90
21123;DHT22;10719;48.130;11.630;2022-10-22T05:14:06;12.00;99.90
21123;DHT22;10719;48.130;11.630;2022-10-22T05:16:34;11.90;99.90
21123;DHT22;10719;48.130;11.630;2022-10-22T05:19:01;11.90;99.90
21123;DHT22;10719;48.130;11.630;2022-10-22T05:21:27;11.90;99.90
21123;DHT22;10719;48.130;11.630;2022-10-22T05:23:53;11.80;99.90
21123;DHT22;10719;48.130;11.630;2022-10-22T05:26:21;11.90;99.90
21123;DHT22;10719;48.130;11.630;2022-10-22T05:28:48;11.90;99.90
21123;DHT22;10719;48.130;11.630;2022-10-22T05:31:14;11.80;99.90
21123;DHT22;10719;48.130;11.630;2022-10-22T05:33:41;11.80;99.90
21123;DHT22;10719;48.130;11.630;2022-10-22T05:36:08;11.80;99.90
21123;DHT22;10719;48.130;11.630;2022-10-22T05:38:36;11.80;99.90
21123;DHT22;10719;48.130;11.630;2022-10-22T05:41:08;11.90;99.90
21123;DHT22;10719;48.130;11.630;2022-10-22T05:43:34;11.90;99.90
21123;DHT22;10719;48.130;11.630;2022-10-22T05:46:09;11.90;99.90
21123;DHT22;10719;48.130;11.630;2022-10-22T05:48:35;12.00;99.90
21123;DHT22;10719;48.130;11.630;2022-10-22T05:51:11;12.00;99.90
21123;DHT22;10719;48.130;11.630;2022-10-22T05:53:39;12.00;99.90
21123;DHT22;10719;48.130;11.630;2022-10-22T05:56:10;12.00;99.90
21123;DHT22;10719;48.130;11.630;2022-10-22T05:58:37;12.00;99.90
21123;DHT22;10719;48.130;11.630;2022-10-22T06:01:16;12.10;99.90
21123;DHT22;10719;48.130;11.630;2022-10-22T06:03:42;12.10;99.90
21123;DHT22;10719;48.130;11.630;2022-10-22T06:09:23;12.20;99.90
21123;DHT22;10719;48.130;11.630;2022-10-22T06:11:47;12.30;99.90
21123;DHT22;10719;48.130;11.630;2022-10-22T06:14:14;12.30;99.90
21123;DHT22;10719;48.130;11.630;2022-10-22T06:16:39;12.30;99.90
21123;DHT22;10719;48.130;11.630;2022-10-22T06:19:06;12.30;99.90
21123;DHT22;10719;48.130;11.630;2022-10-22T06:21:32;12.40;99.90
21123;DHT22;10719;48.130;11.630;2022-10-22T06:23:58;12.30;99.90
21123;DHT22;10719;48.130;11.630;2022-10-22T06:26:24;12.30;99.90
21123;DHT22;10719;48.130;11.630;2022-10-22T06:28:50;12.30;99.90
21123;DHT22;10719;48.130;11.630;2022-10-22T06:31:16;12.30;99.90
21123;DHT22;10719;48.130;11.630;2022-10-22T06:33:42;12.30;99.90
21123;DHT22;10719;48.130;11.630;2022-10-22T06:36:13;12.20;99.90
21123;DHT22;10719;48.130;11.630;2022-10-22T06:38:39;12.20;99.90
21123;DHT22;10719;48.130;11.630;2022-10-22T06:41:10;12.20;99.90
21123;DHT22;10719;48.130;11.630;2022-10-22T06:43:36;12.20;99.90
21123;DHT22;10719;48.130;11.630;2022-10-22T06:46:04;12.20;99.90
21123;DHT22;10719;48.130;11.630;2022-10-22T06:48:31;12.30;99.90
21123;DHT22;10719;48.130;11.630;2022-10-22T06:51:06;12.20;99.90
21123;DHT22;10719;48.130;11.630;2022-10-22T06:53:32;12.20;99.90
21123;DHT22;10719;48.130;11.630;2022-10-22T06:55:57;12.10;99.90
21123;DHT22;10719;48.130;11.630;2022-10-22T06:58:23;12.10;99.90
21123;DHT22;10719;48.130;11.630;2022-10-22T07:00:49;12.00;99.90
21123;DHT22;10719;48.130;11.630;2022-10-22T07:03:15;12.10;99.90
21123;DHT22;10719;48.130;11.630;2022-10-22T07:05:41;12.10;99.90
21123;DHT22;10719;48.130;11.630;2022-10-22T07:08:07;12.10;99.90
21123;DHT22;10719;48.130;11.630;2022-10-22T07:10:33;12.10;99.90
21123;DHT22;10719;48.130;11.630;2022-10-22T07:12:58;12.10;99.90
21123;DHT22;10719;48.130;11.630;2022-10-22T07:15:24;12.20;99.90
21123;DHT22;10719;48.130;11.630;2022-10-22T07:17:50;12.20;99.90
21123;DHT22;10719;48.130;11.630;2022-10-22T07:20:17;12.20;99.90
21123;DHT22;10719;48.130;11.630;2022-10-22T07:22:44;12.10;99.90
21123;DHT22;10719;48.130;11.630;2022-10-22T07:25:10;12.20;99.90
21123;DHT22;10719;48.130;11.630;2022-10-22T07:27:36;12.20;99.90
21123;DHT22;10719;48.130;11.630;2022-10-22T07:30:03;12.20;99.90
21123;DHT22;10719;48.130;11.630;2022-10-22T07:32:28;12.20;99.90
21123;DHT22;10719;48.130;11.630;2022-10-22T07:34:54;12.20;99.90
21123;DHT22;10719;48.130;11.630;2022-10-22T07:37:20;12.20;99.90
21123;DHT22;10719;48.130;11.630;2022-10-22T07:39:47;12.20;99.90
21123;DHT22;10719;48.130;11.630;2022-10-22T07:42:13;12.40;99.90
21123;DHT22;10719;48.130;11.630;2022-10-22T07:44:38;12.40;99.90
21123;DHT22;10719;48.130;11.630;2022-10-22T07:47:04;12.50;99.90
21123;DHT22;10719;48.130;11.630;2022-10-22T07:49:29;12.60;99.90
21123;DHT22;10719;48.130;11.630;2022-10-22T07:51:55;12.70;99.90
21123;DHT22;10719;48.130;11.630;2022-10-22T07:54:22;12.90;99.90
21123;DHT22;10719;48.130;11.630;2022-10-22T07:56:47;13.00;99.90
21123;DHT22;10719;48.130;11.630;2022-10-22T07:59:13;13.10;99.90
21123;DHT22;10719;48.130;11.630;2022-10-22T08:01:39;13.20;99.90
21123;DHT22;10719;48.130;11.630;2022-10-22T08:04:04;13.30;99.90
21123;DHT22;10719;48.130;11.630;2022-10-22T08:06:32;13.40;99.90
21123;DHT22;10719;48.130;11.630;2022-10-22T08:08:58;13.50;99.90
21123;DHT22;10719;48.130;11.630;2022-10-22T08:11:24;13.50;99.90
21123;DHT22;10719;48.130;11.630;2022-10-22T08:13:51;13.50;99.90
21123;DHT22;10719;48.130;11.630;2022-10-22T08:16:17;13.40;99.90
21123;DHT22;10719;48.130;11.630;2022-10-22T08:18:43;13.40;99.90
21123;DHT22;10719;48.130;11.630;2022-10-22T08:21:09;13.40;99.90
21123;DHT22;10719;48.130;11.630;2022-10-22T08:23:35;13.30;99.90
21123;DHT22;10719;48.130;11.630;2022-10-22T08:26:01;13.30;99.90
21123;DHT22;10719;48.130;11.630;2022-10-22T08:28:27;13.30;99.90
21123;DHT22;10719;48.130;11.630;2022-10-22T08:30:54;13.30;99.90
21123;DHT22;10719;48.130;11.630;2022-10-22T08:33:20;13.30;99.90
21123;DHT22;10719;48.130;11.630;2022-10-22T08:35:50;13.40;99.90
21123;DHT22;10719;48.130;11.630;2022-10-22T08:38:16;13.40;99.90
21123;DHT22;10719;48.130;11.630;2022-10-22T08:40:43;13.40;99.90
21123;DHT22;10719;48.130;11.630;2022-10-22T08:45:59;13.30;99.90
21123;DHT22;10719;48.130;11.630;2022-10-22T08:48:52;13.30;99.90
21123;DHT22;10719;48.130;11.630;2022-10-22T08:51:32;13.40;99.90
21123;DHT22;10719;48.130;11.630;2022-10-22T08:57:12;13.60;99.90
21123;DHT22;10719;48.130;11.630;2022-10-22T09:05:21;13.80;99.90
21123;DHT22;10719;48.130;11.630;2022-10-22T09:07:52;13.90;99.90
21123;DHT22;10719;48.130;11.630;2022-10-22T09:10:21;14.00;99.90
21123;DHT22;10719;48.130;11.630;2022-10-22T09:12:48;14.00;99.90
21123;DHT22;10719;48.130;11.630;2022-10-22T09:15:15;13.90;99.90
21123;DHT22;10719;48.130;11.630;2022-10-22T09:20:22;13.90;99.90
21123;DHT22;10719;48.130;11.630;2022-10-22T09:25:48;13.90;99.90
21123;DHT22;10719;48.130;11.630;2022-10-22T09:28:16;14.00;99.90
21123;DHT22;10719;48.130;11.630;2022-10-22T09:30:41;14.10;99.90
21123;DHT22;10719;48.130;11.630;2022-10-22T09:36:05;14.30;99.90
21123;DHT22;10719;48.130;11.630;2022-10-22T09:38:39;14.30;99.90
21123;DHT22;10719;48.130;11.630;2022-10-22T09:41:05;14.40;99.90
21123;DHT22;10719;48.130;11.630;2022-10-22T09:43:31;14.50;99.90
21123;DHT22;10719;48.130;11.630;2022-10-22T09:46:00;14.60;99.90
21123;DHT22;10719;48.130;11.630;2022-10-22T09:48:40;14.80;99.90
21123;DHT22;10719;48.130;11.630;2022-10-22T09:51:23;14.80;99.90
21123;DHT22;10719;48.130;11.630;2022-10-22T09:54:01;14.70;99.90
21123;DHT22;10719;48.130;11.630;2022-10-22T09:56:35;14.60;99.90
21123;DHT22;10719;48.130;11.630;2022-10-22T09:59:03;14.50;99.90
21123;DHT22;10719;48.130;11.630;2022-10-22T10:01:34;14.50;99.90
21123;DHT22;10719;48.130;11.630;2022-10-22T10:04:07;14.50;99.90
21123;DHT22;10719;48.130;11.630;2022-10-22T10:06:34;14.50;99.90
21123;DHT22;10719;48.130;11.630;2022-10-22T10:09:00;14.40;99.90
21123;DHT22;10719;48.130;11.630;2022-10-22T10:11:41;14.40;99.90
21123;DHT22;10719;48.130;11.630;2022-10-22T10:14:26;14.70;99.90
21123;DHT22;10719;48.130;11.630;2022-10-22T10:17:24;14.60;99.90
21123;DHT22;10719;48.130;11.630;2022-10-22T10:22:54;14.40;99.90
21123;DHT22;10719;48.130;11.630;2022-10-22T10:31:27;15.20;99.90
21123;DHT22;10719;48.130;11.630;2022-10-22T10:39:24;15.40;99.90
21123;DHT22;10719;48.130;11.630;2022-10-22T10:49:54;16.80;99.90
21123;DHT22;10719;48.130;11.630;2022-10-22T10:55:10;18.20;99.90
21123;DHT22;10719;48.130;11.630;2022-10-22T10:57:52;18.30;99.90
21123;DHT22;10719;48.130;11.630;2022-10-22T11:00:23;18.70;99.90
21123;DHT22;10719;48.130;11.630;2022-10-22T11:13:42;22.10;99.90
21123;DHT22;10719;48.130;11.630;2022-10-22T11:24:51;23.70;99.90
21123;DHT22;10719;48.130;11.630;2022-10-22T11:30:14;23.60;99.90
21123;DHT22;10719;48.130;11.630;2022-10-22T11:32:42;24.00;99.90
21123;DHT22;10719;48.130;11.630;2022-10-22T11:35:13;24.80;99.90
21123;DHT22;10719;48.130;11.630;2022-10-22T11:37:41;24.10;99.90
21123;DHT22;10719;48.130;11.630;2022-10-22T11:42:56;25.40;99.90
21123;DHT22;10719;48.130;11.630;2022-10-22T11:45:27;25.20;99.90
21123;DHT22;10719;48.130;11.630;2022-10-22T11:50:27;25.00;99.90
21123;DHT22;10719;48.130;11.630;2022-10-22T11:53:03;23.30;99.90
21123;DHT22;10719;48.130;11.630;2022-10-22T11:55:42;22.50;99.90
21123;DHT22;10719;48.130;11.630;2022-10-22T12:00:52;20.40;99.90
21123;DHT22;10719;48.130;11.630;2022-10-22T12:08:30;19.10;99.90
21123;DHT22;10719;48.130;11.630;2022-10-22T12:16:39;18.30;99.90
21123;DHT22;10719;48.130;11.630;2022-10-22T12:19:30;18.10;99.90
21123;DHT22;10719;48.130;11.630;2022-10-22T12:22:18;18.00;99.90
21123;DHT22;10719;48.130;11.630;2022-10-22T12:24:47;17.90;99.90
21123;DHT22;10719;48.130;11.630;2022-10-22T12:27:25;17.80;99.90
21123;DHT22;10719;48.130;11.630;2022-10-22T12:29:56;17.70;99.90
21123;DHT22;10719;48.130;11.630;2022-10-22T12:32:22;17.90;99.90
21123;DHT22;10719;48.130;11.630;2022-10-22T12:34:51;17.80;99.90
21123;DHT22;10719;48.130;11.630;2022-10-22T12:37:17;17.70;99.90
21123;DHT22;10719;48.130;11.630;2022-10-22T12:39:44;17.70;99.90
21123;DHT22;10719;48.130;11.630;2022-10-22T12:42:15;17.70;99.90
21123;DHT22;10719;48.130;11.630;2022-10-22T12:44:43;17.50;99.90
21123;DHT22;10719;48.130;11.630;2022-10-22T12:47:16;17.40;99.90
21123;DHT22;10719;48.130;11.630;2022-10-22T12:49:45;17.30;99.90
21123;DHT22;10719;48.130;11.630;2022-10-22T12:52:18;17.30;99.90
21123;DHT22;10719;48.130;11.630;2022-10-22T12:54:46;17.60;99.90
21123;DHT22;10719;48.130;11.630;2022-10-22T12:57:16;17.70;99.90
21123;DHT22;10719;48.130;11.630;2022-10-22T12:59:45;17.50;99.90
21123;DHT22;10719;48.130;11.630;2022-10-22T13:02:24;17.30;99.90
21123;DHT22;10719;48.130;11.630;2022-10-22T13:07:41;17.20;99.90
21123;DHT22;10719;48.130;11.630;2022-10-22T13:10:16;17.20;99.90
21123;DHT22;10719;48.130;11.630;2022-10-22T13:12:47;18.00;99.90
21123;DHT22;10719;48.130;11.630;2022-10-22T13:20:49;18.70;99.90
21123;DHT22;10719;48.130;11.630;2022-10-22T13:23:21;17.90;99.90
21123;DHT22;10719;48.130;11.630;2022-10-22T13:26:03;17.80;99.90
21123;DHT22;10719;48.130;11.630;2022-10-22T13:28:36;19.30;99.90
21123;DHT22;10719;48.130;11.630;2022-10-22T13:31:10;20.30;99.90
21123;DHT22;10719;48.130;11.630;2022-10-22T13:33:40;20.50;99.90
21123;DHT22;10719;48.130;11.630;2022-10-22T13:36:11;20.90;99.90
21123;DHT22;10719;48.130;11.630;2022-10-22T13:38:38;21.10;99.90
21123;DHT22;10719;48.130;11.630;2022-10-22T13:41:04;21.00;99.90
21123;DHT22;10719;48.130;11.630;2022-10-22T13:43:29;20.50;99.90
21123;DHT22;10719;48.130;11.630;2022-10-22T13:45:57;20.20;99.90
21123;DHT22;10719;48.130;11.630;2022-10-22T13:48:24;20.10;99.90
21123;DHT22;10719;48.130;11.630;2022-10-22T13:50:51;20.00;99.90
21123;DHT22;10719;48.130;11.630;2022-10-22T13:53:21;19.80;99.90
21123;DHT22;10719;48.130;11.630;2022-10-22T13:55:47;19.60;99.90
21123;DHT22;10719;48.130;11.630;2022-10-22T13:58:16;19.60;99.90
21123;DHT22;10719;48.130;11.630;2022-10-22T14:00:45;19.20;99.90
21123;DHT22;10719;48.130;11.630;2022-10-22T14:03:13;19.30;99.90
21123;DHT22;10719;48.130;11.630;2022-10-22T14:05:40;19.10;99.90
21123;DHT22;10719;48.130;11.630;2022-10-22T14:08:16;18.80;99.90
21123;DHT22;10719;48.130;11.630;2022-10-22T14:10:43;18.50;99.90
21123;DHT22;10719;48.130;11.630;2022-10-22T14:13:10;18.50;99.90
21123;DHT22;10719;48.130;11.630;2022-10-22T14:15:36;18.30;99.90
21123;DHT22;10719;48.130;11.630;2022-10-22T14:18:03;18.20;99.90
21123;DHT22;10719;48.130;11.630;2022-10-22T14:20:31;18.20;99.90
21123;DHT22;10719;48.130;11.630;2022-10-22T14:23:06;18.20;99.90
21123;DHT22;10719;48.130;11.630;2022-10-22T14:25:35;18.30;99.90
21123;DHT22;10719;48.130;11.630;2022-10-22T14:28:01;18.40;99.90
21123;DHT22;10719;48.130;11.630;2022-10-22T14:30:26;18.70;99.90
21123;DHT22;10719;48.130;11.630;2022-10-22T14:32:54;19.00;99.90
21123;DHT22;10719;48.130;11.630;2022-10-22T14:35:22;19.00;99.90
21123;DHT22;10719;48.130;11.630;2022-10-22T14:37:47;18.70;99.90
21123;DHT22;10719;48.130;11.630;2022-10-22T14:40:15;18.30;99.90
21123;DHT22;10719;48.130;11.630;2022-10-22T14:42:42;18.10;99.90
21123;DHT22;10719;48.130;11.630;2022-10-22T14:45:23;17.90;99.90
21123;DHT22;10719;48.130;11.630;2022-10-22T14:47:50;17.80;99.90
21123;DHT22;10719;48.130;11.630;2022-10-22T14:50:16;17.70;99.90
21123;DHT22;10719;48.130;11.630;2022-10-22T14:52:43;17.60;99.90
21123;DHT22;10719;48.130;11.630;2022-10-22T14:55:10;17.50;99.90
21123;DHT22;10719;48.130;11.630;2022-10-22T14:57:36;17.40;99.90
21123;DHT22;10719;48.130;11.630;2022-10-22T15:00:05;17.40;99.90
21123;DHT22;10719;48.130;11.630;2022-10-22T15:02:31;17.30;99.90
21123;DHT22;10719;48.130;11.630;2022-10-22T15:04:57;17.30;99.90
21123;DHT22;10719;48.130;11.630;2022-10-22T15:07:22;17.30;99.90
21123;DHT22;10719;48.130;11.630;2022-10-22T15:09:49;17.30;99.90
21123;DHT22;10719;48.130;11.630;2022-10-22T15:12:15;17.20;99.90
21123;DHT22;10719;48.130;11.630;2022-10-22T15:14:41;17.20;99.90
21123;DHT22;10719;48.130;11.630;2022-10-22T15:17:07;17.10;99.90
21123;DHT22;10719;48.130;11.630;2022-10-22T15:19:32;17.10;99.90
21123;DHT22;10719;48.130;11.630;2022-10-22T15:21:58;17.00;99.90
21123;DHT22;10719;48.130;11.630;2022-10-22T15:24:23;16.90;99.90
21123;DHT22;10719;48.130;11.630;2022-10-22T15:26:49;16.80;99.90
21123;DHT22;10719;48.130;11.630;2022-10-22T15:29:18;16.70;99.90
21123;DHT22;10719;48.130;11.630;2022-10-22T15:31:49;16.60;99.90
21123;DHT22;10719;48.130;11.630;2022-10-22T15:34:20;16.60;99.90
21123;DHT22;10719;48.130;11.630;2022-10-22T15:36:47;16.50;99.90
21123;DHT22;10719;48.130;11.630;2022-10-22T15:39:12;16.50;99.90
21123;DHT22;10719;48.130;11.630;2022-10-22T15:41:38;16.40;99.90
21123;DHT22;10719;48.130;11.630;2022-10-22T15:44:04;16.30;99.90
21123;DHT22;10719;48.130;11.630;2022-10-22T15:46:31;16.10;99.90
21123;DHT22;10719;48.130;11.630;2022-10-22T15:48:56;16.10;99.90
21123;DHT22;10719;48.130;11.630;2022-10-22T15:51:22;16.00;99.90
21123;DHT22;10719;48.130;11.630;2022-10-22T15:53:57;15.80;99.90
21123;DHT22;10719;48.130;11.630;2022-10-22T15:56:25;15.60;99.90
21123;DHT22;10719;48.130;11.630;2022-10-22T15:58:53;15.60;99.90
21123;DHT22;10719;48.130;11.630;2022-10-22T16:01:18;15.50;99.90
21123;DHT22;10719;48.130;11.630;2022-10-22T16:03:44;15.50;99.90
21123;DHT22;10719;48.130;11.630;2022-10-22T16:06:10;15.40;99.90
21123;DHT22;10719;48.130;11.630;2022-10-22T16:08:36;15.30;99.90
21123;DHT22;10719;48.130;11.630;2022-10-22T16:11:02;15.10;99.90
21123;DHT22;10719;48.130;11.630;2022-10-22T16:13:27;15.00;99.90
21123;DHT22;10719;48.130;11.630;2022-10-22T16:15:53;14.90;99.90
21123;DHT22;10719;48.130;11.630;2022-10-22T16:18:19;14.80;99.90
21123;DHT22;10719;48.130;11.630;2022-10-22T16:20:46;14.70;99.90
21123;DHT22;10719;48.130;11.630;2022-10-22T16:23:11;14.50;99.90
21123;DHT22;10719;48.130;11.630;2022-10-22T16:25:42;14.40;99.90
21123;DHT22;10719;48.130;11.630;2022-10-22T16:28:09;14.30;99.90
21123;DHT22;10719;48.130;11.630;2022-10-22T16:30:36;14.30;99.90
21123;DHT22;10719;48.130;11.630;2022-10-22T16:33:03;14.20;99.90
21123;DHT22;10719;48.130;11.630;2022-10-22T16:35:30;14.10;99.90
21123;DHT22;10719;48.130;11.630;2022-10-22T16:37:55;14.00;99.90
21123;DHT22;10719;48.130;11.630;2022-10-22T16:40:21;13.90;99.90
21123;DHT22;10719;48.130;11.630;2022-10-22T16:42:47;13.70;99.90
21123;DHT22;10719;48.130;11.630;2022-10-22T16:45:12;13.70;99.90
21123;DHT22;10719;48.130;11.630;2022-10-22T16:47:38;13.60;99.90
21123;DHT22;10719;48.130;11.630;2022-10-22T16:50:05;13.60;99.90
21123;DHT22;10719;48.130;11.630;2022-10-22T16:52:31;13.40;99.90
21123;DHT22;10719;48.130;11.630;2022-10-22T16:54:57;13.40;99.90
21123;DHT22;10719;48.130;11.630;2022-10-22T16:57:25;13.30;99.90
21123;DHT22;10719;48.130;11.630;2022-10-22T16:59:51;13.20;99.90
21123;DHT22;10719;48.130;11.630;2022-10-22T17:02:17;13.10;99.90
21123;DHT22;10719;48.130;11.630;2022-10-22T17:04:43;13.00;99.90
21123;DHT22;10719;48.130;11.630;2022-10-22T17:07:08;13.00;99.90
21123;DHT22;10719;48.130;11.630;2022-10-22T17:09:34;13.00;99.90
21123;DHT22;10719;48.130;11.630;2022-10-22T17:12:00;12.90;99.90
21123;DHT22;10719;48.130;11.630;2022-10-22T17:14:25;12.80;99.90
21123;DHT22;10719;48.130;11.630;2022-10-22T17:16:51;12.70;99.90
21123;DHT22;10719;48.130;11.630;2022-10-22T17:19:20;12.70;99.90
21123;DHT22;10719;48.130;11.630;2022-10-22T17:21:47;12.60;99.90
21123;DHT22;10719;48.130;11.630;2022-10-22T17:24:18;12.50;99.90
21123;DHT22;10719;48.130;11.630;2022-10-22T17:26:44;12.50;99.90
21123;DHT22;10719;48.130;11.630;2022-10-22T17:29:10;12.50;99.90
21123;DHT22;10719;48.130;11.630;2022-10-22T17:31:36;12.40;99.90